sensor_id;sensor_type;location;lat;lon;timestamp;pressure;altitude;pressure_sealevel;temperature;humidity
62510;BME280;48558;48.242;11.654;2024-02-15T00:01:15;96749.88;;;9.21;100.00
62510;BME280;48558;48.242;11.654;2024-02-15T00:05:28;96737.66;;;9.10;100.00
62510;BME280;48558;48.242;11.654;2024-02-15T00:09:41;96747.47;;;9.23;100.00
62510;BME280;48558;48.242;11.654;2024-02-15T00:13:53;96742.03;;;9.45;100.00
62510;BME280;48558;48.242;11.654;2024-02-15T00:18:07;96738.81;;;9.34;100.00
62510;BME280;48558;48.242;11.654;2024-02-15T00:22:20;96719.00;;;9.14;100.00
62510;BME280;48558;48.242;11.654;2024-02-15T00:26:33;96740.72;;;9.12;100.00
62510;BME280;48558;48.242;11.654;2024-02-15T00:30:46;96722.88;;;9.16;100.00
62510;BME280;48558;48.242;11.654;2024-02-15T00:34:58;96744.28;;;9.12;100.00
62510;BME280;48558;48.242;11.654;2024-02-15T00:39:11;96747.03;;;8.87;100.00
62510;BME280;48558;48.242;11.654;2024-02-15T00:43:35;96742.84;;;8.70;100.00
62510;BME280;48558;48.242;11.654;2024-02-15T00:47:48;96758.13;;;8.58;100.00
62510;BME280;48558;48.242;11.654;2024-02-15T00:52:04;96754.84;;;8.63;100.00
62510;BME280;48558;48.242;11.654;2024-02-15T00:56:17;96735.19;;;8.49;100.00
62510;BME280;48558;48.242;11.654;2024-02-15T01:00:30;96746.53;;;8.51;100.00
62510;BME280;48558;48.242;11.654;2024-02-15T01:04:42;96742.13;;;8.41;100.00
62510;BME280;48558;48.242;11.654;2024-02-15T01:08:57;96750.69;;;8.30;100.00
62510;BME280;48558;48.242;11.654;2024-02-15T01:13:10;96747.75;;;8.21;100.00
62510;BME280;48558;48.242;11.654;2024-02-15T01:17:22;96745.13;;;8.18;100.00
62510;BME280;48558;48.242;11.654;2024-02-15T01:21:35;96742.38;;;8.18;100.00
62510;BME280;48558;48.242;11.654;2024-02-15T01:25:48;96751.50;;;8.15;100.00
62510;BME280;48558;48.242;11.654;2024-02-15T01:30:01;96740.94;;;8.13;100.00
62510;BME280;48558;48.242;11.654;2024-02-15T01:34:24;96750.56;;;8.05;100.00
62510;BME280;48558;48.242;11.654;2024-02-15T01:38:36;96747.44;;;7.90;100.00
62510;BME280;48558;48.242;11.654;2024-02-15T01:42:49;96742.63;;;7.66;100.00
62510;BME280;48558;48.242;11.654;2024-02-15T01:47:02;96727.31;;;7.49;100.00
62510;BME280;48558;48.242;11.654;2024-02-15T01:51:16;96732.50;;;7.31;100.00
62510;BME280;48558;48.242;11.654;2024-02-15T01:55:30;96705.78;;;6.99;100.00
62510;BME280;48558;48.242;11.654;2024-02-15T01:59:42;96736.47;;;6.97;100.00
62510;BME280;48558;48.242;11.654;2024-02-15T02:03:55;96686.06;;;6.56;100.00
62510;BME280;48558;48.242;11.654;2024-02-15T02:08:08;96733.53;;;6.88;100.00
62510;BME280;48558;48.242;11.654;2024-02-15T02:12:21;96723.41;;;7.01;100.00
62510;BME280;48558;48.242;11.654;2024-02-15T02:16:34;96715.94;;;7.18;100.00
62510;BME280;48558;48.242;11.654;2024-02-15T02:20:51;96718.41;;;7.29;100.00
62510;BME280;48558;48.242;11.654;2024-02-15T02:25:06;96724.78;;;7.42;100.00
62510;BME280;48558;48.242;11.654;2024-02-15T02:29:23;96717.44;;;7.51;100.00
62510;BME280;48558;48.242;11.654;2024-02-15T02:33:36;96714.13;;;7.44;100.00
62510;BME280;48558;48.242;11.654;2024-02-15T02:37:50;96720.13;;;7.39;100.00
62510;BME280;48558;48.242;11.654;2024-02-15T02:42:07;96720.66;;;7.34;100.00
62510;BME280;48558;48.242;11.654;2024-02-15T02:46:20;96719.63;;;7.28;100.00
62510;BME280;48558;48.242;11.654;2024-02-15T02:50:33;96727.09;;;7.27;100.00
62510;BME280;48558;48.242;11.654;2024-02-15T02:54:46;96722.22;;;7.35;100.00
62510;BME280;48558;48.242;11.654;2024-02-15T02:58:59;96706.91;;;7.34;100.00
62510;BME280;48558;48.242;11.654;2024-02-15T03:03:11;96716.09;;;7.27;100.00
62510;BME280;48558;48.242;11.654;2024-02-15T03:07:24;96717.06;;;7.20;100.00
62510;BME280;48558;48.242;11.654;2024-02-15T03:11:39;96712.06;;;7.15;100.00
62510;BME280;48558;48.242;11.654;2024-02-15T03:15:51;96715.16;;;7.17;100.00
62510;BME280;48558;48.242;11.654;2024-02-15T03:20:06;96715.00;;;7.08;100.00
62510;BME280;48558;48.242;11.654;2024-02-15T03:24:24;96715.94;;;7.02;100.00
62510;BME280;48558;48.242;11.654;2024-02-15T03:28:36;96721.69;;;6.91;100.00
62510;BME280;48558;48.242;11.654;2024-02-15T03:32:50;96723.91;;;6.80;100.00
62510;BME280;48558;48.242;11.654;2024-02-15T03:37:06;96723.16;;;6.80;100.00
62510;BME280;48558;48.242;11.654;2024-02-15T03:41:19;96718.25;;;6.71;100.00
62510;BME280;48558;48.242;11.654;2024-02-15T03:45:32;96717.97;;;6.66;100.00
62510;BME280;48558;48.242;11.654;2024-02-15T03:49:44;96718.16;;;6.75;100.00
62510;BME280;48558;48.242;11.654;2024-02-15T03:53:57;96722.03;;;6.77;100.00
62510;BME280;48558;48.242;11.654;2024-02-15T03:58:10;96712.22;;;6.76;100.00
62510;BME280;48558;48.242;11.654;2024-02-15T04:02:30;96717.22;;;6.81;100.00
62510;BME280;48558;48.242;11.654;2024-02-15T04:06:42;96729.41;;;6.80;100.00
62510;BME280;48558;48.242;11.654;2024-02-15T04:10:55;96721.50;;;6.66;100.00
62510;BME280;48558;48.242;11.654;2024-02-15T04:15:09;96736.81;;;6.47;100.00
62510;BME280;48558;48.242;11.654;2024-02-15T04:19:29;96734.63;;;6.39;100.00
62510;BME280;48558;48.242;11.654;2024-02-15T04:23:42;96724.66;;;6.29;100.00
62510;BME280;48558;48.242;11.654;2024-02-15T04:27:56;96725.56;;;6.22;100.00
62510;BME280;48558;48.242;11.654;2024-02-15T04:32:12;96731.06;;;6.22;100.00
62510;BME280;48558;48.242;11.654;2024-02-15T04:36:25;96724.81;;;6.02;100.00
62510;BME280;48558;48.242;11.654;2024-02-15T04:40:38;96729.38;;;5.89;100.00
62510;BME280;48558;48.242;11.654;2024-02-15T04:44:51;96719.28;;;5.63;100.00
62510;BME280;48558;48.242;11.654;2024-02-15T04:49:06;96734.50;;;5.67;100.00
62510;BME280;48558;48.242;11.654;2024-02-15T04:53:20;96731.53;;;5.58;100.00
62510;BME280;48558;48.242;11.654;2024-02-15T04:57:33;96731.28;;;5.49;100.00
62510;BME280;48558;48.242;11.654;2024-02-15T05:01:49;96727.00;;;5.48;100.00
62510;BME280;48558;48.242;11.654;2024-02-15T05:06:02;96733.72;;;5.44;100.00
62510;BME280;48558;48.242;11.654;2024-02-15T05:10:17;96719.88;;;5.31;100.00
62510;BME280;48558;48.242;11.654;2024-02-15T05:14:31;96725.03;;;5.26;100.00
62510;BME280;48558;48.242;11.654;2024-02-15T05:18:44;96731.00;;;5.21;100.00
62510;BME280;48558;48.242;11.654;2024-02-15T05:22:57;96716.59;;;5.17;100.00
62510;BME280;48558;48.242;11.654;2024-02-15T05:27:11;96721.81;;;5.07;100.00
62510;BME280;48558;48.242;11.654;2024-02-15T05:31:23;96719.72;;;4.92;100.00
62510;BME280;48558;48.242;11.654;2024-02-15T05:35:39;96720.19;;;4.87;100.00
62510;BME280;48558;48.242;11.654;2024-02-15T05:39:51;96716.84;;;4.76;100.00
62510;BME280;48558;48.242;11.654;2024-02-15T05:44:06;96702.22;;;4.59;100.00
62510;BME280;48558;48.242;11.654;2024-02-15T05:48:19;96722.44;;;4.69;100.00
62510;BME280;48558;48.242;11.654;2024-02-15T05:52:33;96718.25;;;4.61;100.00
62510;BME280;48558;48.242;11.654;2024-02-15T05:56:46;96724.13;;;4.59;100.00
62510;BME280;48558;48.242;11.654;2024-02-15T06:01:04;96725.53;;;4.44;100.00
62510;BME280;48558;48.242;11.654;2024-02-15T06:05:24;96721.91;;;4.51;100.00
62510;BME280;48558;48.242;11.654;2024-02-15T06:09:36;96720.94;;;4.64;100.00
62510;BME280;48558;48.242;11.654;2024-02-15T06:14:02;96729.94;;;4.65;100.00
62510;BME280;48558;48.242;11.654;2024-02-15T06:18:16;96732.41;;;4.56;100.00
62510;BME280;48558;48.242;11.654;2024-02-15T06:22:33;96699.81;;;4.38;100.00
62510;BME280;48558;48.242;11.654;2024-02-15T06:26:46;96731.31;;;4.50;100.00
62510;BME280;48558;48.242;11.654;2024-02-15T06:31:11;96729.41;;;4.47;100.00
62510;BME280;48558;48.242;11.654;2024-02-15T06:35:42;96741.44;;;4.53;100.00
62510;BME280;48558;48.242;11.654;2024-02-15T06:40:13;96741.13;;;4.74;100.00
62510;BME280;48558;48.242;11.654;2024-02-15T06:44:26;96734.03;;;5.03;100.00
62510;BME280;48558;48.242;11.654;2024-02-15T06:48:42;96745.13;;;5.42;100.00
62510;BME280;48558;48.242;11.654;2024-02-15T06:52:58;96740.72;;;5.91;100.00
62510;BME280;48558;48.242;11.654;2024-02-15T06:57:11;96742.91;;;6.19;100.00
62510;BME280;48558;48.242;11.654;2024-02-15T07:01:24;96751.47;;;6.41;100.00
62510;BME280;48558;48.242;11.654;2024-02-15T07:05:37;96744.75;;;6.62;100.00
62510;BME280;48558;48.242;11.654;2024-02-15T07:09:53;96727.81;;;6.63;100.00
62510;BME280;48558;48.242;11.654;2024-02-15T07:14:06;96735.66;;;6.81;100.00
62510;BME280;48558;48.242;11.654;2024-02-15T07:18:19;96731.91;;;6.91;100.00
62510;BME280;48558;48.242;11.654;2024-02-15T07:22:39;96730.34;;;6.90;100.00
62510;BME280;48558;48.242;11.654;2024-02-15T07:26:52;96732.75;;;6.88;100.00
62510;BME280;48558;48.242;11.654;2024-02-15T07:31:07;96727.69;;;6.86;100.00
62510;BME280;48558;48.242;11.654;2024-02-15T07:35:20;96728.97;;;6.82;100.00
62510;BME280;48558;48.242;11.654;2024-02-15T07:39:33;96712.66;;;6.75;100.00
62510;BME280;48558;48.242;11.654;2024-02-15T07:43:45;96731.88;;;6.75;100.00
62510;BME280;48558;48.242;11.654;2024-02-15T07:47:59;96728.19;;;6.81;100.00
62510;BME280;48558;48.242;11.654;2024-02-15T07:52:13;96728.81;;;7.05;100.00
62510;BME280;48558;48.242;11.654;2024-02-15T07:56:25;96721.88;;;7.16;100.00
62510;BME280;48558;48.242;11.654;2024-02-15T08:00:38;96722.44;;;7.24;100.00
62510;BME280;48558;48.242;11.654;2024-02-15T08:04:50;96707.25;;;7.36;100.00
62510;BME280;48558;48.242;11.654;2024-02-15T08:09:04;96710.66;;;7.40;100.00
62510;BME280;48558;48.242;11.654;2024-02-15T08:13:26;96719.66;;;7.72;100.00
62510;BME280;48558;48.242;11.654;2024-02-15T08:17:42;96706.97;;;8.04;100.00
62510;BME280;48558;48.242;11.654;2024-02-15T08:22:06;96707.66;;;8.36;100.00
62510;BME280;48558;48.242;11.654;2024-02-15T08:26:18;96707.34;;;8.72;96.93
62510;BME280;48558;48.242;11.654;2024-02-15T08:30:31;96686.81;;;8.98;92.48
62510;BME280;48558;48.242;11.654;2024-02-15T08:34:43;96698.59;;;9.24;91.31
62510;BME280;48558;48.242;11.654;2024-02-15T08:38:56;96688.94;;;9.54;89.66
62510;BME280;48558;48.242;11.654;2024-02-15T08:43:10;96685.50;;;9.84;89.19
62510;BME280;48558;48.242;11.654;2024-02-15T08:47:22;96677.78;;;10.13;87.23
62510;BME280;48558;48.242;11.654;2024-02-15T08:51:35;96680.25;;;10.42;86.25
62510;BME280;48558;48.242;11.654;2024-02-15T08:55:49;96679.34;;;10.85;83.95
62510;BME280;48558;48.242;11.654;2024-02-15T09:00:04;96684.22;;;11.11;80.85
62510;BME280;48558;48.242;11.654;2024-02-15T09:04:26;96676.59;;;11.51;78.12
62510;BME280;48558;48.242;11.654;2024-02-15T09:08:39;96663.38;;;11.65;74.63
62510;BME280;48558;48.242;11.654;2024-02-15T09:12:52;96687.41;;;11.77;74.98
62510;BME280;48558;48.242;11.654;2024-02-15T09:17:04;96669.88;;;11.89;72.87
62510;BME280;48558;48.242;11.654;2024-02-15T09:21:20;96674.28;;;12.32;71.95
62510;BME280;48558;48.242;11.654;2024-02-15T09:25:33;96660.97;;;12.54;70.71
62510;BME280;48558;48.242;11.654;2024-02-15T09:29:46;96668.16;;;12.69;70.21
62510;BME280;48558;48.242;11.654;2024-02-15T09:33:58;96661.97;;;12.83;69.52
62510;BME280;48558;48.242;11.654;2024-02-15T09:38:11;96670.56;;;12.85;69.17
62510;BME280;48558;48.242;11.654;2024-02-15T09:42:25;96654.66;;;13.28;67.48
62510;BME280;48558;48.242;11.654;2024-02-15T09:46:43;96640.78;;;13.28;68.50
62510;BME280;48558;48.242;11.654;2024-02-15T09:50:59;96637.72;;;13.88;66.49
62510;BME280;48558;48.242;11.654;2024-02-15T09:55:14;96638.84;;;14.34;63.67
62510;BME280;48558;48.242;11.654;2024-02-15T09:59:27;96632.69;;;14.15;64.42
62510;BME280;48558;48.242;11.654;2024-02-15T10:03:40;96623.56;;;14.59;63.76
62510;BME280;48558;48.242;11.654;2024-02-15T10:07:53;96624.25;;;14.68;62.32
62510;BME280;48558;48.242;11.654;2024-02-15T10:12:06;96613.97;;;15.09;62.20
62510;BME280;48558;48.242;11.654;2024-02-15T10:16:19;96621.00;;;15.59;62.49
62510;BME280;48558;48.242;11.654;2024-02-15T10:20:40;96609.56;;;15.37;63.75
62510;BME280;48558;48.242;11.654;2024-02-15T10:25:13;96622.44;;;15.35;64.83
62510;BME280;48558;48.242;11.654;2024-02-15T10:29:26;96601.81;;;15.87;63.59
62510;BME280;48558;48.242;11.654;2024-02-15T10:33:38;96607.94;;;15.91;63.96
62510;BME280;48558;48.242;11.654;2024-02-15T10:38:04;96606.53;;;16.53;61.70
62510;BME280;48558;48.242;11.654;2024-02-15T10:42:20;96598.09;;;15.96;61.48
62510;BME280;48558;48.242;11.654;2024-02-15T10:46:33;96585.47;;;16.52;61.76
62510;BME280;48558;48.242;11.654;2024-02-15T10:50:46;96575.69;;;16.67;61.33
62510;BME280;48558;48.242;11.654;2024-02-15T10:55:03;96580.72;;;16.58;61.40
62510;BME280;48558;48.242;11.654;2024-02-15T10:59:19;96570.94;;;17.21;59.16
62510;BME280;48558;48.242;11.654;2024-02-15T11:03:36;96565.94;;;16.52;59.44
62510;BME280;48558;48.242;11.654;2024-02-15T11:07:54;96564.56;;;17.09;58.02
62510;BME280;48558;48.242;11.654;2024-02-15T11:12:08;96556.44;;;17.17;57.78
62510;BME280;48558;48.242;11.654;2024-02-15T11:16:42;96565.34;;;17.80;56.89
62510;BME280;48558;48.242;11.654;2024-02-15T11:20:55;96546.09;;;18.21;54.80
62510;BME280;48558;48.242;11.654;2024-02-15T11:25:11;96511.50;;;18.07;53.91
62510;BME280;48558;48.242;11.654;2024-02-15T11:29:51;96528.03;;;17.94;54.19
62510;BME280;48558;48.242;11.654;2024-02-15T11:34:43;96524.41;;;17.71;56.00
62510;BME280;48558;48.242;11.654;2024-02-15T11:38:58;96508.19;;;17.81;55.06
62510;BME280;48558;48.242;11.654;2024-02-15T11:47:57;96506.34;;;17.56;56.62
62510;BME280;48558;48.242;11.654;2024-02-15T11:52:10;96507.72;;;18.16;55.80
62510;BME280;48558;48.242;11.654;2024-02-15T11:56:23;96485.59;;;18.12;56.06
62510;BME280;48558;48.242;11.654;2024-02-15T12:00:37;96485.47;;;19.01;54.07
62510;BME280;48558;48.242;11.654;2024-02-15T12:05:08;96477.91;;;18.68;54.28
62510;BME280;48558;48.242;11.654;2024-02-15T12:09:39;96479.16;;;19.58;52.14
62510;BME280;48558;48.242;11.654;2024-02-15T12:14:13;96471.34;;;18.66;53.60
62510;BME280;48558;48.242;11.654;2024-02-15T12:18:45;96467.13;;;19.05;53.29
62510;BME280;48558;48.242;11.654;2024-02-15T12:23:00;96459.91;;;18.25;52.25
62510;BME280;48558;48.242;11.654;2024-02-15T12:27:14;96455.69;;;18.98;53.79
62510;BME280;48558;48.242;11.654;2024-02-15T12:31:27;96451.28;;;19.19;52.48
62510;BME280;48558;48.242;11.654;2024-02-15T12:35:40;96443.50;;;18.90;52.56
62510;BME280;48558;48.242;11.654;2024-02-15T12:39:54;96437.81;;;19.17;52.70
62510;BME280;48558;48.242;11.654;2024-02-15T12:44:07;96437.75;;;18.54;53.00
62510;BME280;48558;48.242;11.654;2024-02-15T12:48:20;96427.38;;;18.05;54.29
62510;BME280;48558;48.242;11.654;2024-02-15T12:52:34;96418.69;;;18.42;54.15
62510;BME280;48558;48.242;11.654;2024-02-15T12:56:48;96413.78;;;18.76;53.81
62510;BME280;48558;48.242;11.654;2024-02-15T13:01:06;96421.50;;;18.20;54.35
62510;BME280;48558;48.242;11.654;2024-02-15T13:05:22;96416.69;;;17.92;53.98
62510;BME280;48558;48.242;11.654;2024-02-15T13:09:35;96408.06;;;17.90;54.30
62510;BME280;48558;48.242;11.654;2024-02-15T13:13:48;96409.81;;;17.60;55.20
62510;BME280;48558;48.242;11.654;2024-02-15T13:18:01;96405.53;;;17.70;54.19
62510;BME280;48558;48.242;11.654;2024-02-15T13:22:17;96382.84;;;17.46;54.73
62510;BME280;48558;48.242;11.654;2024-02-15T13:26:31;96392.81;;;17.75;55.00
62510;BME280;48558;48.242;11.654;2024-02-15T13:30:46;96393.53;;;18.14;53.40
62510;BME280;48558;48.242;11.654;2024-02-15T13:34:58;96392.03;;;17.58;55.51
62510;BME280;48558;48.242;11.654;2024-02-15T13:39:19;96386.97;;;17.95;54.63
62510;BME280;48558;48.242;11.654;2024-02-15T13:43:34;96386.44;;;18.13;53.84
62510;BME280;48558;48.242;11.654;2024-02-15T13:47:46;96380.91;;;18.82;53.03
62510;BME280;48558;48.242;11.654;2024-02-15T13:52:00;96377.56;;;18.89;50.58
62510;BME280;48558;48.242;11.654;2024-02-15T13:56:16;96374.72;;;18.09;52.40
62510;BME280;48558;48.242;11.654;2024-02-15T14:00:28;96366.22;;;18.65;51.81
62510;BME280;48558;48.242;11.654;2024-02-15T14:04:49;96362.78;;;18.99;51.19
62510;BME280;48558;48.242;11.654;2024-02-15T14:09:01;96364.63;;;18.80;49.92
62510;BME280;48558;48.242;11.654;2024-02-15T14:13:14;96377.03;;;19.77;49.20
62510;BME280;48558;48.242;11.654;2024-02-15T14:17:27;96366.75;;;19.15;49.74
62510;BME280;48558;48.242;11.654;2024-02-15T14:21:40;96375.59;;;18.73;51.05
62510;BME280;48558;48.242;11.654;2024-02-15T14:25:54;96375.00;;;17.78;53.66
62510;BME280;48558;48.242;11.654;2024-02-15T14:30:12;96370.88;;;19.03;52.08
62510;BME280;48558;48.242;11.654;2024-02-15T14:34:43;96368.88;;;18.18;52.22
62510;BME280;48558;48.242;11.654;2024-02-15T14:38:55;96347.53;;;17.38;54.61
62510;BME280;48558;48.242;11.654;2024-02-15T14:43:08;96360.69;;;16.39;57.81
62510;BME280;48558;48.242;11.654;2024-02-15T14:47:27;96345.41;;;16.77;57.53
62510;BME280;48558;48.242;11.654;2024-02-15T14:51:40;96347.03;;;16.47;58.18
62510;BME280;48558;48.242;11.654;2024-02-15T14:55:54;96346.97;;;16.30;58.53
62510;BME280;48558;48.242;11.654;2024-02-15T15:00:07;96346.88;;;16.19;58.71
62510;BME280;48558;48.242;11.654;2024-02-15T15:04:23;96348.22;;;16.29;58.65
62510;BME280;48558;48.242;11.654;2024-02-15T15:08:36;96355.03;;;16.23;58.84
62510;BME280;48558;48.242;11.654;2024-02-15T15:13:07;96350.56;;;16.00;59.59
62510;BME280;48558;48.242;11.654;2024-02-15T15:17:21;96357.31;;;15.51;60.51
62510;BME280;48558;48.242;11.654;2024-02-15T15:21:34;96349.44;;;14.98;61.89
62510;BME280;48558;48.242;11.654;2024-02-15T15:25:47;96344.81;;;15.15;61.55
62510;BME280;48558;48.242;11.654;2024-02-15T15:29:59;96330.56;;;14.82;61.97
62510;BME280;48558;48.242;11.654;2024-02-15T15:34:12;96328.72;;;14.53;63.28
62510;BME280;48558;48.242;11.654;2024-02-15T15:38:25;96330.38;;;14.45;64.12
62510;BME280;48558;48.242;11.654;2024-02-15T15:42:39;96326.13;;;14.09;65.69
62510;BME280;48558;48.242;11.654;2024-02-15T15:46:52;96323.88;;;13.93;66.87
62510;BME280;48558;48.242;11.654;2024-02-15T15:51:06;96316.41;;;13.64;67.92
62510;BME280;48558;48.242;11.654;2024-02-15T15:55:21;96333.75;;;13.59;68.43
62510;BME280;48558;48.242;11.654;2024-02-15T15:59:34;96323.47;;;13.31;70.23
62510;BME280;48558;48.242;11.654;2024-02-15T16:03:48;96310.81;;;13.01;71.58
62510;BME280;48558;48.242;11.654;2024-02-15T16:08:02;96321.22;;;12.76;73.06
62510;BME280;48558;48.242;11.654;2024-02-15T16:12:15;96330.84;;;12.52;74.79
62510;BME280;48558;48.242;11.654;2024-02-15T16:16:31;96323.69;;;12.21;76.66
62510;BME280;48558;48.242;11.654;2024-02-15T16:20:44;96310.44;;;12.02;78.63
62510;BME280;48558;48.242;11.654;2024-02-15T16:24:58;96327.63;;;12.06;80.46
62510;BME280;48558;48.242;11.654;2024-02-15T16:29:17;96327.09;;;11.93;83.72
62510;BME280;48558;48.242;11.654;2024-02-15T16:33:30;96324.78;;;11.68;88.46
62510;BME280;48558;48.242;11.654;2024-02-15T16:37:43;96331.91;;;11.50;94.34
62510;BME280;48558;48.242;11.654;2024-02-15T16:41:56;96327.16;;;11.51;98.98
62510;BME280;48558;48.242;11.654;2024-02-15T16:46:09;96332.16;;;11.29;100.00
62510;BME280;48558;48.242;11.654;2024-02-15T16:50:22;96329.00;;;11.12;100.00
62510;BME280;48558;48.242;11.654;2024-02-15T16:54:35;96339.44;;;11.08;100.00
62510;BME280;48558;48.242;11.654;2024-02-15T16:58:47;96337.19;;;10.89;100.00
62510;BME280;48558;48.242;11.654;2024-02-15T17:03:00;96343.03;;;10.81;100.00
62510;BME280;48558;48.242;11.654;2024-02-15T17:07:13;96345.38;;;10.65;100.00
62510;BME280;48558;48.242;11.654;2024-02-15T17:11:25;96334.94;;;10.51;100.00
62510;BME280;48558;48.242;11.654;2024-02-15T17:15:38;96329.41;;;10.33;100.00
62510;BME280;48558;48.242;11.654;2024-02-15T17:19:50;96340.56;;;10.11;100.00
62510;BME280;48558;48.242;11.654;2024-02-15T17:24:03;96346.03;;;9.93;100.00
62510;BME280;48558;48.242;11.654;2024-02-15T17:28:17;96338.59;;;10.12;100.00
62510;BME280;48558;48.242;11.654;2024-02-15T17:32:30;96346.94;;;9.81;100.00
62510;BME280;48558;48.242;11.654;2024-02-15T17:36:43;96349.34;;;9.61;100.00
62510;BME280;48558;48.242;11.654;2024-02-15T17:40:56;96349.16;;;9.55;100.00
62510;BME280;48558;48.242;11.654;2024-02-15T17:45:10;96345.75;;;9.42;100.00
62510;BME280;48558;48.242;11.654;2024-02-15T17:49:23;96349.81;;;9.28;100.00
62510;BME280;48558;48.242;11.654;2024-02-15T17:53:36;96341.19;;;9.17;100.00
62510;BME280;48558;48.242;11.654;2024-02-15T17:57:49;96339.03;;;9.12;100.00
62510;BME280;48558;48.242;11.654;2024-02-15T18:02:03;96336.22;;;9.03;100.00
62510;BME280;48558;48.242;11.654;2024-02-15T18:06:15;96339.13;;;9.00;100.00
62510;BME280;48558;48.242;11.654;2024-02-15T18:10:28;96340.91;;;8.94;100.00
62510;BME280;48558;48.242;11.654;2024-02-15T18:14:41;96329.16;;;8.93;100.00
62510;BME280;48558;48.242;11.654;2024-02-15T18:18:54;96326.00;;;8.82;100.00
62510;BME280;48558;48.242;11.654;2024-02-15T18:23:08;96315.38;;;8.72;100.00
62510;BME280;48558;48.242;11.654;2024-02-15T18:27:21;96321.66;;;8.72;100.00
62510;BME280;48558;48.242;11.654;2024-02-15T18:31:33;96328.97;;;8.44;100.00
62510;BME280;48558;48.242;11.654;2024-02-15T18:35:47;96324.03;;;8.39;100.00
62510;BME280;48558;48.242;11.654;2024-02-15T18:40:00;96321.47;;;8.45;100.00
62510;BME280;48558;48.242;11.654;2024-02-15T18:44:29;96319.38;;;8.27;100.00
62510;BME280;48558;48.242;11.654;2024-02-15T18:48:41;96310.25;;;8.05;100.00
62510;BME280;48558;48.242;11.654;2024-02-15T18:52:58;96307.25;;;7.90;100.00
62510;BME280;48558;48.242;11.654;2024-02-15T18:57:10;96311.31;;;7.86;100.00
62510;BME280;48558;48.242;11.654;2024-02-15T19:01:24;96304.78;;;7.71;100.00
62510;BME280;48558;48.242;11.654;2024-02-15T19:05:37;96294.09;;;7.60;100.00
62510;BME280;48558;48.242;11.654;2024-02-15T19:09:52;96299.09;;;7.53;100.00
62510;BME280;48558;48.242;11.654;2024-02-15T19:14:05;96297.44;;;7.43;100.00
62510;BME280;48558;48.242;11.654;2024-02-15T19:18:23;96292.72;;;7.31;100.00
62510;BME280;48558;48.242;11.654;2024-02-15T19:22:37;96286.03;;;7.19;100.00
62510;BME280;48558;48.242;11.654;2024-02-15T19:26:50;96280.44;;;7.10;100.00
62510;BME280;48558;48.242;11.654;2024-02-15T19:31:03;96282.63;;;7.02;100.00
62510;BME280;48558;48.242;11.654;2024-02-15T19:35:17;96288.22;;;6.99;100.00
62510;BME280;48558;48.242;11.654;2024-02-15T19:39:31;96276.03;;;6.87;100.00
62510;BME280;48558;48.242;11.654;2024-02-15T19:43:44;96290.31;;;6.95;100.00
62510;BME280;48558;48.242;11.654;2024-02-15T19:47:57;96291.19;;;6.79;100.00
62510;BME280;48558;48.242;11.654;2024-02-15T19:52:11;96291.31;;;6.76;100.00
62510;BME280;48558;48.242;11.654;2024-02-15T19:56:23;96281.31;;;6.69;100.00
62510;BME280;48558;48.242;11.654;2024-02-15T20:00:46;96284.25;;;6.62;100.00
62510;BME280;48558;48.242;11.654;2024-02-15T20:05:02;96272.25;;;6.56;100.00
62510;BME280;48558;48.242;11.654;2024-02-15T20:09:19;96273.34;;;6.46;100.00
62510;BME280;48558;48.242;11.654;2024-02-15T20:13:42;96265.53;;;6.32;100.00
62510;BME280;48558;48.242;11.654;2024-02-15T20:17:56;96264.41;;;6.29;100.00
62510;BME280;48558;48.242;11.654;2024-02-15T20:22:08;96264.19;;;6.24;100.00
62510;BME280;48558;48.242;11.654;2024-02-15T20:26:24;96258.91;;;6.17;100.00
62510;BME280;48558;48.242;11.654;2024-02-15T20:30:39;96276.22;;;6.14;100.00
62510;BME280;48558;48.242;11.654;2024-02-15T20:34:53;96286.28;;;6.04;100.00
62510;BME280;48558;48.242;11.654;2024-02-15T20:39:05;96282.38;;;5.89;100.00
62510;BME280;48558;48.242;11.654;2024-02-15T20:43:18;96273.38;;;5.72;100.00
62510;BME280;48558;48.242;11.654;2024-02-15T20:47:31;96271.78;;;5.59;100.00
62510;BME280;48558;48.242;11.654;2024-02-15T20:51:45;96264.84;;;5.54;100.00
62510;BME280;48558;48.242;11.654;2024-02-15T20:55:58;96264.94;;;5.51;100.00
62510;BME280;48558;48.242;11.654;2024-02-15T21:00:11;96260.44;;;5.44;100.00
62510;BME280;48558;48.242;11.654;2024-02-15T21:04:30;96263.84;;;5.32;100.00
62510;BME280;48558;48.242;11.654;2024-02-15T21:08:43;96252.56;;;5.30;100.00
62510;BME280;48558;48.242;11.654;2024-02-15T21:12:56;96256.16;;;5.27;100.00
62510;BME280;48558;48.242;11.654;2024-02-15T21:17:08;96255.28;;;5.30;100.00
62510;BME280;48558;48.242;11.654;2024-02-15T21:21:21;96251.03;;;5.13;100.00
62510;BME280;48558;48.242;11.654;2024-02-15T21:25:34;96265.22;;;5.08;100.00
62510;BME280;48558;48.242;11.654;2024-02-15T21:29:47;96245.13;;;4.98;100.00
62510;BME280;48558;48.242;11.654;2024-02-15T21:34:01;96250.34;;;4.93;100.00
62510;BME280;48558;48.242;11.654;2024-02-15T21:38:20;96248.28;;;4.97;100.00
62510;BME280;48558;48.242;11.654;2024-02-15T21:42:32;96241.19;;;4.83;100.00
62510;BME280;48558;48.242;11.654;2024-02-15T21:46:46;96243.41;;;4.72;100.00
62510;BME280;48558;48.242;11.654;2024-02-15T21:50:58;96243.59;;;4.62;100.00
62510;BME280;48558;48.242;11.654;2024-02-15T21:55:11;96227.59;;;4.44;100.00
62510;BME280;48558;48.242;11.654;2024-02-15T21:59:24;96234.97;;;4.47;100.00
62510;BME280;48558;48.242;11.654;2024-02-15T22:03:37;96236.91;;;4.47;100.00
62510;BME280;48558;48.242;11.654;2024-02-15T22:07:49;96225.69;;;4.41;100.00
62510;BME280;48558;48.242;11.654;2024-02-15T22:12:02;96230.75;;;4.43;100.00
62510;BME280;48558;48.242;11.654;2024-02-15T22:16:15;96232.88;;;4.35;100.00